Time;durP1;ratioP1;P1;durP2;ratioP2;P2;SDS_P1;SDS_P2;PMS_P1;PMS_P2;Temp;Humidity;BMP_temperature;BMP_pressure;BME280_temperature;BME280_humidity;BME280_pressure;Samples;Min_cycle;Max_cycle;Signal;HPM_P1;HPM_P2
2023/05/18 00:00:20;;;;;;;3.53;1.35;;;8.30;99.90;;;;;;5015757;28;20026;-82
2023/05/18 00:02:47;;;;;;;3.38;1.10;;;8.30;99.90;;;;;;5015689;28;20026;-82
2023/05/18 00:05:12;;;;;;;6.00;1.58;;;8.20;99.90;;;;;;5020151;28;20472;-82
2023/05/18 00:07:39;;;;;;;6.10;1.23;;;8.20;99.90;;;;;;5017257;28;20105;-83
2023/05/18 00:10:06;;;;;;;5.88;1.45;;;8.20;99.90;;;;;;5017225;28;20382;-83
2023/05/18 00:12:32;;;;;;;6.35;2.10;;;8.10;99.90;;;;;;5016047;28;20037;-82
2023/05/18 00:14:57;;;;;;;3.47;1.30;;;8.10;99.90;;;;;;5014822;28;20046;-82
2023/05/18 00:17:23;;;;;;;3.55;1.25;;;8.10;99.90;;;;;;5015601;28;20207;-82
2023/05/18 00:19:49;;;;;;;3.50;1.20;;;8.10;99.90;;;;;;5017168;28;20033;-82
2023/05/18 00:22:17;;;;;;;1.98;1.00;;;8.00;99.90;;;;;;5016379;28;20037;-82
2023/05/18 00:24:44;;;;;;;2.47;0.80;;;8.00;99.90;;;;;;5016686;28;20087;-82
2023/05/18 00:27:10;;;;;;;2.58;1.10;;;8.00;99.90;;;;;;5014007;28;20494;-82
2023/05/18 00:29:35;;;;;;;3.50;1.30;;;8.00;99.90;;;;;;5016123;28;20040;-83
2023/05/18 00:32:01;;;;;;;3.50;1.00;;;8.00;99.90;;;;;;5015842;28;20021;-82
2023/05/18 00:34:27;;;;;;;5.60;1.40;;;7.90;99.90;;;;;;5013185;28;20034;-82
2023/05/18 00:36:52;;;;;;;4.70;1.20;;;7.90;99.90;;;;;;5016653;28;20030;-83
2023/05/18 00:39:18;;;;;;;2.75;1.17;;;7.90;99.90;;;;;;5016866;28;20049;-83
2023/05/18 00:41:43;;;;;;;3.63;1.50;;;7.80;99.90;;;;;;5019755;28;20443;-82
2023/05/18 00:44:09;;;;;;;4.68;1.48;;;7.80;99.90;;;;;;5015462;28;20107;-82
2023/05/18 00:46:35;;;;;;;5.05;1.50;;;7.80;99.90;;;;;;5015007;28;20034;-83
2023/05/18 00:49:01;;;;;;;3.88;1.40;;;7.80;99.90;;;;;;5015100;28;20500;-82
2023/05/18 00:51:27;;;;;;;4.18;1.27;;;7.70;99.90;;;;;;5015619;28;20033;-82
2023/05/18 00:53:55;;;;;;;5.80;1.80;;;7.70;99.90;;;;;;5017718;28;20103;-82
2023/05/18 00:56:22;;;;;;;9.63;1.60;;;7.70;99.90;;;;;;5014863;28;20028;-82
2023/05/18 00:58:51;;;;;;;2.83;1.30;;;7.70;99.90;;;;;;5015791;28;20034;-82
2023/05/18 01:01:18;;;;;;;5.55;1.50;;;7.70;99.90;;;;;;5015345;28;20029;-82
2023/05/18 01:03:43;;;;;;;3.97;1.40;;;7.70;99.90;;;;;;5015537;28;20040;-82
2023/05/18 01:06:11;;;;;;;5.38;1.60;;;7.60;99.90;;;;;;5015961;28;20037;-81
2023/05/18 01:08:37;;;;;;;4.03;1.40;;;7.60;99.90;;;;;;5013956;28;20021;-82
2023/05/18 01:11:32;;;;;;;1.75;1.05;;;7.60;99.90;;;;;;5011911;28;20065;-83
2023/05/18 01:14:14;;;;;;;6.50;1.23;;;7.50;99.90;;;;;;5001181;28;20054;-82
2023/05/18 01:16:49;;;;;;;5.90;1.30;;;7.60;99.90;;;;;;5012549;28;20026;-83
2023/05/18 01:19:36;;;;;;;6.45;1.40;;;7.50;99.90;;;;;;5013265;28;20029;-83
2023/05/18 01:22:36;;;;;;;4.50;1.27;;;7.50;99.90;;;;;;5015163;28;20057;-82
2023/05/18 01:25:13;;;;;;;3.65;1.45;;;7.50;99.90;;;;;;5012781;28;20041;-82
2023/05/18 01:27:41;;;;;;;5.15;1.15;;;7.40;99.90;;;;;;5028636;28;20079;-81
2023/05/18 01:30:07;;;;;;;4.07;1.50;;;7.40;99.90;;;;;;5014567;28;20033;-81
2023/05/18 01:32:41;;;;;;;4.50;1.45;;;7.40;99.90;;;;;;5013746;28;20091;-82
2023/05/18 01:35:07;;;;;;;4.90;1.27;;;7.40;99.90;;;;;;5029899;28;20029;-82
2023/05/18 01:37:32;;;;;;;4.80;1.45;;;7.40;99.90;;;;;;5013769;28;20080;-82
2023/05/18 01:39:59;;;;;;;4.55;1.40;;;7.40;99.90;;;;;;5014629;28;20106;-82
2023/05/18 01:42:29;;;;;;;5.85;1.48;;;7.40;99.90;;;;;;5013330;28;20405;-82
2023/05/18 01:45:01;;;;;;;5.07;1.35;;;7.40;99.90;;;;;;5012366;28;20675;-82
2023/05/18 01:47:29;;;;;;;5.63;1.08;;;7.40;99.90;;;;;;5014274;28;20479;-83
2023/05/18 01:50:04;;;;;;;7.20;1.45;;;7.30;99.90;;;;;;5030296;28;20038;-82
2023/05/18 01:52:41;;;;;;;5.13;1.30;;;7.30;99.90;;;;;;5013227;28;20048;-80
2023/05/18 01:55:10;;;;;;;3.05;1.30;;;7.30;99.90;;;;;;5014857;28;20029;-82
2023/05/18 01:57:40;;;;;;;3.30;1.13;;;7.30;99.90;;;;;;5013405;28;20529;-81
2023/05/18 02:00:06;;;;;;;3.70;1.00;;;7.30;99.90;;;;;;5013912;28;20029;-82
2023/05/18 02:02:32;;;;;;;4.55;2.05;;;7.30;99.90;;;;;;5015897;28;20021;-82
2023/05/18 02:04:58;;;;;;;5.68;1.42;;;7.30;99.90;;;;;;5014326;28;20559;-84
2023/05/18 02:07:23;;;;;;;3.53;1.20;;;7.20;99.90;;;;;;5014212;28;20026;-81
2023/05/18 02:09:49;;;;;;;2.72;1.20;;;7.20;99.90;;;;;;5014721;28;20033;-81
2023/05/18 02:12:14;;;;;;;4.97;1.58;;;7.30;99.90;;;;;;5014246;28;20125;-82
2023/05/18 02:14:40;;;;;;;4.38;1.20;;;7.20;99.90;;;;;;5014587;28;20033;-82
2023/05/18 02:17:06;;;;;;;2.80;1.00;;;7.20;99.90;;;;;;5015951;28;20040;-82
2023/05/18 02:19:32;;;;;;;6.18;2.00;;;7.20;99.90;;;;;;5014562;28;20027;-82
2023/05/18 02:21:58;;;;;;;2.45;1.13;;;7.20;99.90;;;;;;5013029;28;20033;-82
2023/05/18 02:24:24;;;;;;;3.20;1.38;;;7.20;99.90;;;;;;5013381;28;20044;-82
2023/05/18 02:26:50;;;;;;;3.28;1.30;;;7.20;99.90;;;;;;5014406;28;20085;-82
2023/05/18 02:29:16;;;;;;;4.13;1.33;;;7.20;99.90;;;;;;5013702;28;20491;-82
2023/05/18 02:31:42;;;;;;;3.65;1.30;;;7.10;99.90;;;;;;5014949;28;20033;-83
2023/05/18 02:34:07;;;;;;;2.58;1.05;;;7.20;99.90;;;;;;5016537;28;20021;-82
2023/05/18 02:36:38;;;;;;;4.93;1.60;;;7.10;99.90;;;;;;5014007;28;20037;-82
2023/05/18 02:39:05;;;;;;;6.35;1.90;;;7.10;99.90;;;;;;5017186;28;20083;-83
2023/05/18 02:41:31;;;;;;;4.05;1.30;;;7.10;99.90;;;;;;5018090;28;20514;-82
2023/05/18 02:43:56;;;;;;;4.85;1.45;;;7.10;99.90;;;;;;5018486;28;20049;-82
2023/05/18 02:46:22;;;;;;;3.42;1.30;;;7.10;99.90;;;;;;5018325;28;20514;-83
2023/05/18 02:48:48;;;;;;;4.53;1.60;;;7.10;99.90;;;;;;5019696;28;20056;-82
2023/05/18 02:51:13;;;;;;;5.00;1.67;;;7.00;99.90;;;;;;5017975;28;20379;-82
2023/05/18 02:53:39;;;;;;;3.92;1.45;;;7.00;99.90;;;;;;5017506;28;20022;-82
2023/05/18 02:56:05;;;;;;;8.45;1.60;;;7.00;99.90;;;;;;5017452;28;20052;-82
2023/05/18 02:58:30;;;;;;;3.13;1.20;;;6.90;99.90;;;;;;5017507;28;20029;-82
2023/05/18 03:00:58;;;;;;;5.75;1.38;;;7.00;99.90;;;;;;5018092;28;20057;-81
2023/05/18 03:03:24;;;;;;;6.75;1.90;;;6.90;99.90;;;;;;5018813;28;20510;-82
2023/05/18 03:05:52;;;;;;;5.63;1.50;;;6.90;99.90;;;;;;5018214;28;20113;-81
2023/05/18 03:08:25;;;;;;;4.03;1.50;;;6.90;99.90;;;;;;5017385;28;20033;-81
2023/05/18 03:10:51;;;;;;;5.32;1.42;;;6.90;99.90;;;;;;5017901;28;20128;-82
2023/05/18 03:13:17;;;;;;;5.43;1.52;;;6.90;99.90;;;;;;5017347;28;20462;-81
2023/05/18 03:15:44;;;;;;;4.57;1.40;;;6.80;99.90;;;;;;5018626;28;20617;-82
2023/05/18 03:18:10;;;;;;;4.70;1.42;;;6.80;99.90;;;;;;5018424;28;20057;-82
2023/05/18 03:20:36;;;;;;;4.18;1.10;;;6.80;99.90;;;;;;5017482;28;20046;-82
2023/05/18 03:23:02;;;;;;;4.25;1.50;;;6.80;99.90;;;;;;5016487;28;22340;-81
2023/05/18 03:25:29;;;;;;;3.83;1.30;;;6.80;99.90;;;;;;5016146;28;20060;-82
2023/05/18 03:27:55;;;;;;;3.35;1.40;;;6.70;99.90;;;;;;5017020;28;20022;-82
2023/05/18 03:30:21;;;;;;;5.13;1.63;;;6.80;99.90;;;;;;5017719;28;20031;-83
2023/05/18 03:32:46;;;;;;;5.45;1.48;;;6.80;99.90;;;;;;5018557;28;20029;-82
2023/05/18 03:35:13;;;;;;;5.22;1.58;;;6.70;99.90;;;;;;5018302;28;20073;-82
2023/05/18 03:37:39;;;;;;;2.75;1.10;;;6.80;99.90;;;;;;5016733;28;20034;-82
2023/05/18 03:40:12;;;;;;;5.35;1.42;;;6.70;99.90;;;;;;5016569;28;20075;-82
2023/05/18 03:42:39;;;;;;;5.00;1.33;;;6.70;99.90;;;;;;5016143;28;20037;-83
2023/05/18 03:45:05;;;;;;;3.85;1.45;;;6.70;99.90;;;;;;5018115;28;20503;-83
2023/05/18 03:47:31;;;;;;;4.03;1.40;;;6.70;99.90;;;;;;5017652;28;20076;-83
2023/05/18 03:49:56;;;;;;;2.67;1.40;;;6.70;99.90;;;;;;5017537;28;20097;-83
2023/05/18 03:52:22;;;;;;;4.63;1.73;;;6.70;99.90;;;;;;5015381;28;20392;-83
2023/05/18 03:54:48;;;;;;;4.20;1.52;;;6.70;99.90;;;;;;5018218;28;20099;-83
2023/05/18 03:57:17;;;;;;;5.10;1.70;;;6.80;99.90;;;;;;5016519;28;20124;-82
2023/05/18 03:59:44;;;;;;;4.25;1.60;;;6.80;99.90;;;;;;5016744;28;20037;-83
2023/05/18 04:02:10;;;;;;;4.82;1.35;;;6.80;99.90;;;;;;5017075;28;20026;-82
2023/05/18 04:04:36;;;;;;;3.55;1.58;;;6.80;99.90;;;;;;5018416;28;20038;-81
2023/05/18 04:07:04;;;;;;;3.58;1.35;;;6.80;99.90;;;;;;5031159;28;20472;-81
2023/05/18 04:09:31;;;;;;;4.18;1.20;;;6.80;99.90;;;;;;5015883;28;20044;-82
2023/05/18 04:11:56;;;;;;;5.05;1.52;;;6.80;99.90;;;;;;5016337;28;20052;-81
2023/05/18 04:14:23;;;;;;;4.25;1.48;;;6.90;99.90;;;;;;5016510;28;20037;-81
2023/05/18 04:16:50;;;;;;;5.13;1.67;;;6.90;99.90;;;;;;5016239;28;20030;-82
2023/05/18 04:19:17;;;;;;;3.78;1.33;;;6.90;99.90;;;;;;5017086;28;20021;-82
2023/05/18 04:21:46;;;;;;;5.15;1.70;;;6.90;99.90;;;;;;5016459;28;20126;-82
2023/05/18 04:24:13;;;;;;;3.38;1.30;;;7.00;99.90;;;;;;5014993;28;20048;-82
2023/05/18 04:26:39;;;;;;;4.38;1.27;;;7.00;99.90;;;;;;5015399;28;20022;-82
2023/05/18 04:29:06;;;;;;;5.93;1.38;;;7.00;99.90;;;;;;5016536;28;20052;-82
2023/05/18 04:31:34;;;;;;;4.05;1.45;;;7.10;99.90;;;;;;5015631;28;20026;-82
2023/05/18 04:34:00;;;;;;;5.60;1.20;;;7.10;99.90;;;;;;5016613;28;20026;-83
2023/05/18 04:36:29;;;;;;;4.95;1.52;;;7.20;99.90;;;;;;5016752;28;20030;-83
2023/05/18 04:38:58;;;;;;;5.32;1.42;;;7.20;99.90;;;;;;5015746;28;20531;-82
2023/05/18 04:41:25;;;;;;;5.47;1.60;;;7.30;99.90;;;;;;5016222;28;20471;-82
2023/05/18 04:43:51;;;;;;;2.80;1.23;;;7.30;99.90;;;;;;5016379;28;20046;-82
2023/05/18 04:46:17;;;;;;;4.38;0.95;;;7.40;99.90;;;;;;5014638;28;20013;-82
2023/05/18 04:48:43;;;;;;;8.10;1.30;;;7.50;99.90;;;;;;5017062;28;20447;-82
2023/05/18 04:51:09;;;;;;;4.65;1.75;;;7.60;99.90;;;;;;5016076;28;20037;-83
2023/05/18 04:53:37;;;;;;;4.88;2.15;;;7.60;99.90;;;;;;5014295;28;20398;-82
2023/05/18 04:56:03;;;;;;;5.35;1.40;;;7.70;99.90;;;;;;5015623;28;20068;-82
2023/05/18 04:58:32;;;;;;;3.75;1.13;;;7.70;99.90;;;;;;5015531;28;20364;-82
2023/05/18 05:00:58;;;;;;;4.85;1.17;;;7.80;99.90;;;;;;5016488;28;20032;-83
2023/05/18 05:03:23;;;;;;;5.97;1.65;;;7.90;99.90;;;;;;5016094;28;20045;-83
2023/05/18 05:05:49;;;;;;;5.72;1.48;;;7.90;99.90;;;;;;5020445;28;20103;-82
2023/05/18 05:08:15;;;;;;;4.35;1.60;;;7.90;99.90;;;;;;5016381;28;20037;-82
2023/05/18 05:10:40;;;;;;;5.68;1.58;;;7.90;99.90;;;;;;5014918;28;20128;-83
2023/05/18 05:13:08;;;;;;;7.30;1.35;;;8.00;99.90;;;;;;5015685;28;20091;-83
2023/05/18 05:15:34;;;;;;;3.78;1.27;;;8.00;99.90;;;;;;5015792;28;20109;-83
2023/05/18 05:18:00;;;;;;;4.05;1.08;;;8.10;99.90;;;;;;5016064;28;20026;-83
2023/05/18 05:20:25;;;;;;;4.88;1.08;;;8.10;99.90;;;;;;5016784;28;20032;-83
2023/05/18 05:22:51;;;;;;;3.08;0.98;;;8.20;99.90;;;;;;5014586;28;20380;-83
2023/05/18 05:25:16;;;;;;;3.63;1.02;;;8.20;99.90;;;;;;5014204;28;20042;-83
2023/05/18 05:27:42;;;;;;;8.38;1.73;;;8.20;99.90;;;;;;5014777;28;20028;-83
2023/05/18 05:30:08;;;;;;;3.72;1.52;;;8.20;99.90;;;;;;5015393;28;20032;-82
2023/05/18 05:32:34;;;;;;;2.80;1.15;;;8.30;99.90;;;;;;5015093;28;20025;-82
2023/05/18 05:35:00;;;;;;;6.65;1.50;;;8.30;99.90;;;;;;5014876;28;20884;-83
2023/05/18 05:37:26;;;;;;;5.55;1.10;;;8.40;99.90;;;;;;5016234;28;20059;-83
2023/05/18 05:39:51;;;;;;;7.18;1.73;;;8.40;99.90;;;;;;5016408;28;20033;-84
2023/05/18 05:42:17;;;;;;;4.97;1.10;;;8.40;99.90;;;;;;5013253;28;20076;-83
2023/05/18 05:44:43;;;;;;;5.43;1.30;;;8.50;99.90;;;;;;5015048;28;20041;-83
2023/05/18 05:47:08;;;;;;;4.38;1.23;;;8.50;99.90;;;;;;5013831;28;20106;-83
2023/05/18 05:49:34;;;;;;;7.88;2.03;;;8.50;99.90;;;;;;5028814;28;20516;-84
2023/05/18 05:51:59;;;;;;;3.55;1.20;;;8.50;99.90;;;;;;5012910;28;20083;-83
2023/05/18 05:54:25;;;;;;;4.47;1.10;;;8.50;99.90;;;;;;5012067;28;20038;-84
2023/05/18 05:56:51;;;;;;;4.20;1.10;;;8.50;99.90;;;;;;5012415;28;20732;-84
2023/05/18 05:59:16;;;;;;;4.85;0.98;;;8.50;99.90;;;;;;5012623;28;20483;-84
2023/05/18 06:01:42;;;;;;;3.47;1.10;;;8.60;99.90;;;;;;5013060;28;20022;-84
2023/05/18 06:04:11;;;;;;;3.08;0.90;;;8.60;99.90;;;;;;5012289;28;20465;-84
2023/05/18 06:06:38;;;;;;;5.53;1.25;;;8.70;99.90;;;;;;5012801;28;20019;-83
2023/05/18 06:09:03;;;;;;;6.32;1.00;;;8.80;99.90;;;;;;5011093;28;20090;-83
2023/05/18 06:11:30;;;;;;;4.22;0.90;;;8.80;99.90;;;;;;5011924;28;20719;-83
2023/05/18 06:13:56;;;;;;;3.60;1.10;;;8.90;99.90;;;;;;5011931;28;20041;-83
2023/05/18 06:16:21;;;;;;;5.45;0.93;;;9.00;99.90;;;;;;5012237;28;20032;-84
2023/05/18 06:18:47;;;;;;;5.47;1.35;;;9.00;99.90;;;;;;5013071;28;20104;-85
2023/05/18 06:21:14;;;;;;;4.13;1.30;;;9.10;99.90;;;;;;5014142;28;20509;-85
2023/05/18 06:23:40;;;;;;;6.97;1.27;;;9.20;99.90;;;;;;5027028;28;20071;-84
2023/05/18 06:26:05;;;;;;;5.15;1.15;;;9.10;99.90;;;;;;5011299;28;20688;-83
2023/05/18 06:28:31;;;;;;;4.97;1.20;;;9.20;99.90;;;;;;5011826;28;20395;-83
2023/05/18 06:30:57;;;;;;;4.68;1.10;;;9.20;99.90;;;;;;5012922;28;20171;-82
2023/05/18 06:33:23;;;;;;;4.95;1.20;;;9.20;99.90;;;;;;5013143;28;20181;-83
2023/05/18 06:35:49;;;;;;;4.63;1.20;;;9.30;99.90;;;;;;5013482;28;20786;-83
2023/05/18 06:38:14;;;;;;;7.40;1.42;;;9.30;99.90;;;;;;5011533;28;20057;-84
2023/05/18 06:40:40;;;;;;;5.97;1.13;;;9.30;99.90;;;;;;5012840;28;20044;-83
2023/05/18 06:43:05;;;;;;;4.28;1.23;;;9.40;99.90;;;;;;5013837;28;20538;-83
2023/05/18 06:45:31;;;;;;;5.05;1.15;;;9.40;99.90;;;;;;5014873;28;20119;-83
2023/05/18 06:47:57;;;;;;;5.00;1.15;;;9.40;99.90;;;;;;5015301;28;20083;-83
2023/05/18 06:50:22;;;;;;;4.68;1.13;;;9.50;99.90;;;;;;5014870;28;20053;-83
2023/05/18 06:52:48;;;;;;;5.13;1.40;;;9.60;99.90;;;;;;5013617;28;20472;-83
2023/05/18 06:55:14;;;;;;;5.05;1.25;;;9.60;99.90;;;;;;5013205;28;20052;-83
2023/05/18 06:57:40;;;;;;;3.50;1.05;;;9.60;99.90;;;;;;5011726;28;20448;-85
2023/05/18 07:00:11;;;;;;;4.32;0.95;;;9.70;99.90;;;;;;5014706;28;20029;-83
2023/05/18 07:02:37;;;;;;;5.07;0.93;;;9.70;99.90;;;;;;5014948;28;20500;-83
2023/05/18 07:05:05;;;;;;;4.57;1.38;;;9.80;99.90;;;;;;5014881;28;20026;-83
2023/05/18 07:07:31;;;;;;;7.30;1.63;;;9.80;99.90;;;;;;5011229;28;20076;-85
2023/05/18 07:09:57;;;;;;;4.88;1.25;;;9.80;99.90;;;;;;5015184;28;20434;-82
2023/05/18 07:12:25;;;;;;;4.38;1.33;;;9.90;99.90;;;;;;5010716;28;20049;-83
2023/05/18 07:14:50;;;;;;;4.68;1.40;;;9.90;99.90;;;;;;5016297;28;20376;-83
2023/05/18 07:17:16;;;;;;;6.15;1.33;;;10.00;99.90;;;;;;5011739;28;20033;-83
2023/05/18 07:19:42;;;;;;;5.43;1.55;;;10.00;99.90;;;;;;5011864;28;20108;-83
2023/05/18 07:22:07;;;;;;;4.97;1.05;;;10.00;99.90;;;;;;5011735;28;20073;-84
2023/05/18 07:24:33;;;;;;;4.72;1.10;;;10.00;99.90;;;;;;5020818;28;20088;-84
2023/05/18 07:26:58;;;;;;;8.98;1.67;;;10.00;99.90;;;;;;5015733;28;20049;-83
2023/05/18 07:29:24;;;;;;;5.88;1.58;;;10.10;99.90;;;;;;5013599;28;20526;-83
2023/05/18 07:31:50;;;;;;;4.75;1.17;;;10.20;99.90;;;;;;5016905;28;20103;-82
2023/05/18 07:34:15;;;;;;;8.15;1.20;;;10.20;99.90;;;;;;5016179;28;20030;-82
2023/05/18 07:36:41;;;;;;;5.00;1.17;;;10.30;99.90;;;;;;5014479;28;20091;-83
2023/05/18 07:39:07;;;;;;;8.15;1.20;;;10.40;99.90;;;;;;5014297;28;20109;-83
2023/05/18 07:41:33;;;;;;;5.78;1.73;;;10.40;99.90;;;;;;5014945;28;20029;-84
2023/05/18 07:43:59;;;;;;;4.32;1.67;;;10.50;99.90;;;;;;5014280;28;20142;-84
2023/05/18 07:46:25;;;;;;;4.03;1.02;;;10.60;99.90;;;;;;5016578;28;20400;-85
2023/05/18 07:48:50;;;;;;;4.18;1.20;;;10.70;99.90;;;;;;5015456;28;20026;-83
2023/05/18 07:51:16;;;;;;;2.90;0.88;;;10.70;99.90;;;;;;5015794;28;20073;-84
2023/05/18 07:53:41;;;;;;;7.03;1.20;;;10.80;99.90;;;;;;5015153;28;20026;-82
2023/05/18 07:56:08;;;;;;;5.80;1.10;;;10.90;99.90;;;;;;5019306;28;20502;-83
2023/05/18 07:58:34;;;;;;;5.57;1.20;;;11.00;99.90;;;;;;5013363;28;20946;-81
2023/05/18 08:01:00;;;;;;;5.38;1.30;;;11.10;99.90;;;;;;5013267;28;20060;-82
2023/05/18 08:03:26;;;;;;;5.97;1.20;;;11.20;99.90;;;;;;5015341;28;20163;-84
2023/05/18 08:05:51;;;;;;;4.75;1.40;;;11.30;99.90;;;;;;5016246;28;20061;-82
2023/05/18 08:08:17;;;;;;;2.88;1.10;;;11.40;99.90;;;;;;5013376;28;20492;-82
2023/05/18 08:10:43;;;;;;;5.72;1.50;;;11.60;99.90;;;;;;5015085;28;20046;-81
2023/05/18 08:13:08;;;;;;;4.50;1.20;;;11.80;99.90;;;;;;5015213;28;20153;-82
2023/05/18 08:15:34;;;;;;;5.72;1.20;;;12.10;99.90;;;;;;5016611;28;20029;-82
2023/05/18 08:18:00;;;;;;;4.88;1.60;;;12.20;99.90;;;;;;5017620;28;20048;-83
2023/05/18 08:20:28;;;;;;;6.43;1.50;;;12.30;99.90;;;;;;5017437;28;20121;-82
2023/05/18 08:22:55;;;;;;;5.07;1.60;;;12.30;99.90;;;;;;5014708;28;20018;-82
2023/05/18 08:25:21;;;;;;;6.53;1.85;;;12.50;99.90;;;;;;5013985;28;20077;-82
2023/05/18 08:27:46;;;;;;;6.57;1.48;;;12.60;99.90;;;;;;5012164;28;20030;-82
2023/05/18 08:30:12;;;;;;;6.20;1.40;;;12.70;99.90;;;;;;5013822;28;20022;-82
2023/05/18 08:32:38;;;;;;;5.38;1.20;;;12.70;99.90;;;;;;5015511;28;20037;-81
2023/05/18 08:35:04;;;;;;;6.72;1.40;;;12.80;99.90;;;;;;5015893;28;20476;-80
2023/05/18 08:37:30;;;;;;;3.30;1.00;;;12.90;99.90;;;;;;5013616;28;20022;-81
2023/05/18 08:39:58;;;;;;;7.90;1.70;;;13.00;99.90;;;;;;5014851;28;20578;-82
2023/05/18 08:42:43;;;;;;;4.30;1.20;;;13.10;99.90;;;;;;5015412;28;20026;-81
2023/05/18 08:45:28;;;;;;;6.50;1.20;;;13.00;99.90;;;;;;5016814;28;20052;-83
2023/05/18 08:47:56;;;;;;;3.85;1.63;;;13.00;99.90;;;;;;5016565;28;20414;-82
2023/05/18 08:50:23;;;;;;;5.70;1.70;;;13.20;99.90;;;;;;5016659;28;20030;-81
2023/05/18 08:52:54;;;;;;;5.97;1.75;;;13.30;99.90;;;;;;5015151;28;20032;-82
2023/05/18 08:55:21;;;;;;;5.97;1.20;;;13.30;99.90;;;;;;5014429;28;20086;-82
2023/05/18 08:57:54;;;;;;;5.38;1.55;;;13.50;99.90;;;;;;5014196;28;20034;-83
2023/05/18 09:00:21;;;;;;;6.40;1.20;;;13.60;99.90;;;;;;5015550;28;20456;-83
2023/05/18 09:02:47;;;;;;;4.53;1.10;;;13.60;99.90;;;;;;5016426;28;20108;-81
2023/05/18 09:05:14;;;;;;;5.75;1.45;;;13.70;99.90;;;;;;5016366;28;20030;-82
2023/05/18 09:07:41;;;;;;;4.10;1.10;;;13.80;99.90;;;;;;5014511;28;20051;-83
2023/05/18 09:10:09;;;;;;;4.20;1.27;;;13.90;99.90;;;;;;5014764;28;20037;-82
2023/05/18 09:12:35;;;;;;;4.70;1.70;;;13.90;99.90;;;;;;5014833;28;20045;-82
2023/05/18 09:15:02;;;;;;;5.43;1.45;;;14.00;99.90;;;;;;5014940;28;20041;-83
2023/05/18 09:17:28;;;;;;;5.90;1.15;;;14.20;99.90;;;;;;5015032;28;20503;-83
2023/05/18 09:19:53;;;;;;;5.00;1.20;;;14.20;99.90;;;;;;5017014;28;20075;-82
2023/05/18 09:22:19;;;;;;;4.82;1.40;;;14.20;99.90;;;;;;5014961;28;20028;-79
2023/05/18 09:24:45;;;;;;;4.50;1.17;;;14.20;99.90;;;;;;5014327;28;20183;-82
2023/05/18 09:27:10;;;;;;;7.20;1.92;;;14.30;99.90;;;;;;5016399;28;20028;-81
2023/05/18 09:29:54;;;;;;;7.03;2.33;;;14.20;99.90;;;;;;5013616;28;20028;-83
2023/05/18 09:32:21;;;;;;;4.35;1.23;;;14.30;99.90;;;;;;5016547;28;20034;-84
2023/05/18 09:34:47;;;;;;;5.65;1.50;;;14.30;99.90;;;;;;5016710;28;20440;-84
2023/05/18 09:37:18;;;;;;;6.45;1.75;;;14.30;99.90;;;;;;5012980;28;20025;-82
2023/05/18 09:39:44;;;;;;;4.20;1.10;;;14.60;99.90;;;;;;5013577;28;20025;-81
2023/05/18 09:42:11;;;;;;;4.32;1.10;;;15.10;99.90;;;;;;5015025;28;20057;-81
2023/05/18 09:44:36;;;;;;;6.30;1.73;;;15.90;99.90;;;;;;5014834;28;20041;-83
2023/05/18 09:47:08;;;;;;;7.05;2.33;;;16.60;99.90;;;;;;5013770;28;20026;-83
2023/05/18 09:49:33;;;;;;;4.90;1.42;;;16.90;99.60;;;;;;5015304;28;20037;-83
2023/05/18 09:51:59;;;;;;;4.82;1.35;;;16.90;99.50;;;;;;5015224;28;20029;-83
2023/05/18 09:54:25;;;;;;;6.03;1.90;;;17.30;99.60;;;;;;5013826;28;20106;-82
2023/05/18 09:56:50;;;;;;;5.50;1.30;;;17.90;99.00;;;;;;5014462;28;20029;-81
2023/05/18 09:59:16;;;;;;;4.20;1.38;;;18.40;98.80;;;;;;5013521;28;20037;-82
2023/05/18 10:02:11;;;;;;;5.32;1.33;;;19.00;98.20;;;;;;5014185;28;20100;-82
2023/05/18 10:04:41;;;;;;;3.90;1.15;;;19.50;97.30;;;;;;5013402;28;20060;-82
2023/05/18 10:07:11;;;;;;;4.72;1.10;;;19.50;97.30;;;;;;5015064;28;20030;-81
2023/05/18 10:09:39;;;;;;;4.53;1.50;;;19.80;97.20;;;;;;5016295;28;20032;-80
2023/05/18 10:12:16;;;;;;;7.05;1.52;;;20.20;96.90;;;;;;5014616;28;20076;-79
2023/05/18 10:14:44;;;;;;;4.32;1.33;;;20.50;96.60;;;;;;5014272;28;20720;-82
2023/05/18 10:17:11;;;;;;;7.15;1.40;;;21.00;96.10;;;;;;5015668;28;20029;-82
2023/05/18 10:19:39;;;;;;;5.85;1.38;;;21.30;95.10;;;;;;5031100;28;20479;-81
2023/05/18 10:22:05;;;;;;;6.60;1.20;;;21.50;94.80;;;;;;5014513;28;20034;-80
2023/05/18 10:24:37;;;;;;;4.47;1.15;;;21.70;94.70;;;;;;5012527;28;20964;-81
2023/05/18 10:27:09;;;;;;;7.40;1.70;;;21.70;93.90;;;;;;5013510;28;20025;-82
2023/05/18 10:29:37;;;;;;;7.38;1.60;;;21.40;93.60;;;;;;5013177;28;20512;-80
2023/05/18 10:32:04;;;;;;;3.00;1.10;;;21.20;93.50;;;;;;5015217;28;20437;-82
2023/05/18 10:34:31;;;;;;;3.22;1.00;;;21.10;93.60;;;;;;5014955;28;20488;-82
2023/05/18 10:37:02;;;;;;;5.25;1.58;;;21.30;93.10;;;;;;5014139;28;20022;-81
2023/05/18 10:39:29;;;;;;;5.40;1.38;;;21.30;92.90;;;;;;5013891;28;20029;-82
2023/05/18 10:41:56;;;;;;;6.53;1.75;;;21.40;92.80;;;;;;5015027;28;20080;-82
2023/05/18 10:44:24;;;;;;;4.60;1.55;;;21.30;91.90;;;;;;5012749;28;20061;-82
2023/05/18 10:46:50;;;;;;;4.80;1.48;;;21.30;92.20;;;;;;5014755;28;20033;-81
2023/05/18 10:49:23;;;;;;;4.93;1.35;;;21.50;92.10;;;;;;5014623;28;20033;-81
2023/05/18 10:51:53;;;;;;;6.10;1.58;;;21.70;91.70;;;;;;5017663;28;20026;-79
2023/05/18 10:54:21;;;;;;;6.43;1.75;;;21.70;91.70;;;;;;5027454;28;20037;-81
2023/05/18 10:56:50;;;;;;;4.75;1.40;;;21.60;92.30;;;;;;5026181;28;20454;-82
2023/05/18 10:59:17;;;;;;;3.35;1.25;;;21.40;92.00;;;;;;5013269;28;20018;-80
2023/05/18 11:01:44;;;;;;;5.40;1.40;;;21.50;91.70;;;;;;5017004;28;20045;-81
2023/05/18 11:04:10;;;;;;;4.82;1.45;;;21.90;91.50;;;;;;5017184;28;20029;-82
2023/05/18 11:06:37;;;;;;;6.10;1.50;;;22.50;91.20;;;;;;5015627;28;20491;-81
2023/05/18 11:09:02;;;;;;;6.93;1.90;;;22.80;90.10;;;;;;5017444;28;20390;-81
2023/05/18 11:11:29;;;;;;;6.03;1.77;;;22.80;89.30;;;;;;5015407;28;20045;-80
2023/05/18 11:14:00;;;;;;;5.80;1.52;;;22.90;89.50;;;;;;5017097;28;20029;-81
2023/05/18 11:16:35;;;;;;;4.03;1.35;;;23.30;88.90;;;;;;5018049;28;20068;-81
2023/05/18 11:19:11;;;;;;;4.70;1.48;;;23.70;88.90;;;;;;5019860;28;20120;-81
2023/05/18 11:21:40;;;;;;;5.03;1.25;;;24.00;88.20;;;;;;5016688;28;20030;-82
2023/05/18 11:24:25;;;;;;;4.50;1.42;;;24.30;87.90;;;;;;5016521;28;20182;-82
2023/05/18 11:27:06;;;;;;;3.45;1.20;;;24.40;85.90;;;;;;5018937;28;20049;-82
2023/05/18 11:29:35;;;;;;;2.75;1.08;;;24.40;86.10;;;;;;5016939;28;20578;-82
2023/05/18 11:32:01;;;;;;;6.38;1.80;;;24.60;85.40;;;;;;5019051;28;20093;-81
2023/05/18 11:34:43;;;;;;;4.60;1.30;;;24.70;83.80;;;;;;5018643;28;20552;-81
2023/05/18 11:37:13;;;;;;;3.50;1.20;;;24.80;84.00;;;;;;5015843;28;20025;-81
2023/05/18 11:39:40;;;;;;;4.22;1.52;;;24.70;83.10;;;;;;5017466;28;20022;-82
2023/05/18 11:42:05;;;;;;;4.55;1.40;;;24.50;82.30;;;;;;5018041;28;20032;-83
2023/05/18 11:44:32;;;;;;;4.13;1.45;;;24.10;82.80;;;;;;5015739;28;20050;-81
2023/05/18 11:46:57;;;;;;;6.57;1.52;;;23.80;81.80;;;;;;5017136;28;20028;-83
2023/05/18 11:49:44;;;;;;;4.80;1.50;;;23.40;82.30;;;;;;5018645;28;22391;-83
2023/05/18 11:52:23;;;;;;;6.47;1.60;;;23.00;84.50;;;;;;5017493;28;20026;-81
2023/05/18 11:54:53;;;;;;;5.25;1.50;;;22.50;84.50;;;;;;5017114;28;20122;-81
2023/05/18 11:57:23;;;;;;;5.30;1.45;;;22.10;84.60;;;;;;5016937;28;20171;-80
2023/05/18 11:59:56;;;;;;;3.85;1.30;;;22.10;83.00;;;;;;5017044;28;20030;-82
2023/05/18 12:02:33;;;;;;;3.67;1.27;;;21.80;83.40;;;;;;5015870;28;20025;-81
2023/05/18 12:05:00;;;;;;;3.35;0.80;;;21.90;83.60;;;;;;5019227;28;20049;-81
2023/05/18 12:07:34;;;;;;;3.97;1.23;;;21.90;83.90;;;;;;5031432;28;20045;-81
2023/05/18 12:10:01;;;;;;;6.53;1.85;;;22.00;83.50;;;;;;5015975;28;20034;-82
2023/05/18 12:12:27;;;;;;;4.13;1.30;;;21.90;83.40;;;;;;5016069;28;20572;-81
2023/05/18 12:14:54;;;;;;;4.72;1.30;;;22.00;83.90;;;;;;5015442;28;20033;-82
2023/05/18 12:17:21;;;;;;;5.50;1.70;;;22.10;84.00;;;;;;5016778;28;20128;-82
2023/05/18 12:19:48;;;;;;;6.40;1.58;;;21.90;83.20;;;;;;5019291;28;20079;-83
2023/05/18 12:22:14;;;;;;;5.72;1.63;;;21.70;84.00;;;;;;5016948;28;20029;-84
2023/05/18 12:24:42;;;;;;;4.55;1.30;;;21.60;84.20;;;;;;5015980;28;20041;-81
2023/05/18 12:27:09;;;;;;;4.88;1.20;;;21.70;84.20;;;;;;5016095;28;20032;-81
2023/05/18 12:29:39;;;;;;;4.82;1.50;;;21.80;84.50;;;;;;5016257;28;20038;-83
2023/05/18 12:32:10;;;;;;;5.68;1.40;;;22.10;84.50;;;;;;5016653;28;20121;-82
2023/05/18 12:34:36;;;;;;;4.85;1.27;;;22.30;85.80;;;;;;5017778;28;20041;-82
2023/05/18 12:37:02;;;;;;;3.72;1.20;;;22.70;85.60;;;;;;5016119;28;20026;-82
2023/05/18 12:39:28;;;;;;;6.68;1.40;;;23.10;85.60;;;;;;5015190;28;20037;-83
2023/05/18 12:42:06;;;;;;;4.75;1.30;;;23.60;84.20;;;;;;5015406;28;20163;-83
2023/05/18 12:44:32;;;;;;;3.08;1.23;;;23.80;83.10;;;;;;5014807;28;20612;-82
2023/05/18 12:46:57;;;;;;;5.75;1.75;;;24.30;82.80;;;;;;5016617;28;20025;-82
2023/05/18 12:49:23;;;;;;;4.35;1.33;;;24.40;81.60;;;;;;5020398;28;20512;-83
2023/05/18 12:51:53;;;;;;;3.92;1.40;;;24.50;80.30;;;;;;5014222;28;20025;-82
2023/05/18 12:54:29;;;;;;;5.45;1.50;;;24.70;80.00;;;;;;5014851;28;20076;-83